CCGS Tanu — CGBY — position and weather

sailwx.info

Track history (hours):
 
Tides and Currents Weather Stations Pressure Air Temp Water Temp Dewpoint Dewpoint Depression Visibility Wind Speed Wind Dir Waves Ship Positions

CCGS Tanu (Canada)

Ship's website: http://www.ccg-gcc.gc.ca/vessels-navires/details_e.asp?id=M-5

Last reported at 2015-May-02 16:33 UTC. Time now 2015-May-06 02:22 UTC.
Position N 49°48' W 126°39'.

Length 54.5 m; beam 9.7 m; draft 3.7 m.

Type: SAR. MMSI: 316091000.

Date/timePositionNaut miles runAvg speedWind from/ knotsBaromVisibWave heightAir tempDewpointWater temp
2015-May-02 16:33N 49°48' W 126°39'11 9.6
2015-May-02 15:25N 49°40' W 126°28'1 0.1
2015-May-02 04:12N 49°39' W 126°27'4 1.0
2015-May-02 00:33N 49°36' W 126°31'1 1.4
2015-May-01 23:33N 49°36' W 126°33'2 2.1
2015-May-01 22:33N 49°35' W 126°36'3 2.9
2015-May-01 21:33N 49°38' W 126°36'1110.7
2015-May-01 20:32N 49°49' W 126°39'  
2015-Apr-28 22:08N 50°43' W 127°29'0 0.0
2015-Apr-28 21:14N 50°43' W 127°29'0 0.0
2015-Apr-28 20:26N 50°43' W 127°29'0 0.0
2015-Apr-28 18:24N 50°43' W 127°29'1 0.4
2015-Apr-28 16:09N 50°43' W 127°28'0 0.0
2015-Apr-28 15:33N 50°43' W 127°28'4 4.0
2015-Apr-28 14:33N 50°47' W 127°30'10 9.5
2015-Apr-28 13:33N 50°50' W 127°44'5 4.4
2015-Apr-28 12:28N 50°51' W 127°52'0 0.0
2015-Apr-28 11:28N 50°51' W 127°52'0 0.0
2015-Apr-28 10:28N 50°51' W 127°52'0 0.0
2015-Apr-28 09:28N 50°51' W 127°52'0 0.1
2015-Apr-28 08:28N 50°51' W 127°52'0 0.0
2015-Apr-28 07:28N 50°51' W 127°52'0 0.0
2015-Apr-28 06:28N 50°51' W 127°52'0 0.0
2015-Apr-28 05:28N 50°51' W 127°52'0 0.0
2015-Apr-28 04:28N 50°51' W 127°52'0 0.0
2015-Apr-28 03:28N 50°51' W 127°52'0 0.0
2015-Apr-28 02:28N 50°51' W 127°52'0 0.0
2015-Apr-28 01:28N 50°51' W 127°52'0 0.0
2015-Apr-28 00:28N 50°51' W 127°52'0 0.0
2015-Apr-27 23:10N 50°51' W 127°52'0 0.0
2015-Apr-27 21:22N 50°51' W 127°52'0 0.0
2015-Apr-27 20:22N 50°51' W 127°52'0 0.0
2015-Apr-27 19:28N 50°51' W 127°52'0 0.0
2015-Apr-27 18:28N 50°51' W 127°52'5 5.5
2015-Apr-27 17:32N 50°55' W 127°46'9 9.6
2015-Apr-27 16:33N 51°04' W 127°48'1210.2
2015-Apr-27 15:25N 51°16' W 127°52'  
Track history (hours):
 
Tides and Currents Weather Stations Pressure Air Temp Water Temp Dewpoint Dewpoint Depression Visibility Wind Speed Wind Dir Waves Ship Positions

CCGS Tanu (Canada)

Ship's website: http://www.ccg-gcc.gc.ca/vessels-navires/details_e.asp?id=M-5

Last reported at 2015-May-02 16:33 UTC. Time now 2015-May-06 02:22 UTC.
Position N 49°48' W 126°39'.

Length 54.5 m; beam 9.7 m; draft 3.7 m.

Type: SAR. MMSI: 316091000.

Date/timePositionNaut miles runAvg speedWind from/ knotsBaromVisibWave heightAir tempDewpointWater temp
2015-May-02 16:33N 49°48' W 126°39'11 9.6
2015-May-02 15:25N 49°40' W 126°28'1 0.1
2015-May-02 04:12N 49°39' W 126°27'4 1.0
2015-May-02 00:33N 49°36' W 126°31'1 1.4
2015-May-01 23:33N 49°36' W 126°33'2 2.1
2015-May-01 22:33N 49°35' W 126°36'3 2.9
2015-May-01 21:33N 49°38' W 126°36'1110.7
2015-May-01 20:32N 49°49' W 126°39'  
2015-Apr-28 22:08N 50°43' W 127°29'0 0.0
2015-Apr-28 21:14N 50°43' W 127°29'0 0.0
2015-Apr-28 20:26N 50°43' W 127°29'0 0.0
2015-Apr-28 18:24N 50°43' W 127°29'1 0.4
2015-Apr-28 16:09N 50°43' W 127°28'0 0.0
2015-Apr-28 15:33N 50°43' W 127°28'4 4.0
2015-Apr-28 14:33N 50°47' W 127°30'10 9.5
2015-Apr-28 13:33N 50°50' W 127°44'5 4.4
2015-Apr-28 12:28N 50°51' W 127°52'0 0.0
2015-Apr-28 11:28N 50°51' W 127°52'0 0.0
2015-Apr-28 10:28N 50°51' W 127°52'0 0.0
2015-Apr-28 09:28N 50°51' W 127°52'0 0.1
2015-Apr-28 08:28N 50°51' W 127°52'0 0.0
2015-Apr-28 07:28N 50°51' W 127°52'0 0.0
2015-Apr-28 06:28N 50°51' W 127°52'0 0.0
2015-Apr-28 05:28N 50°51' W 127°52'0 0.0
2015-Apr-28 04:28N 50°51' W 127°52'0 0.0
2015-Apr-28 03:28N 50°51' W 127°52'0 0.0
2015-Apr-28 02:28N 50°51' W 127°52'0 0.0
2015-Apr-28 01:28N 50°51' W 127°52'0 0.0
2015-Apr-28 00:28N 50°51' W 127°52'0 0.0
2015-Apr-27 23:10N 50°51' W 127°52'0 0.0
2015-Apr-27 21:22N 50°51' W 127°52'0 0.0
2015-Apr-27 20:22N 50°51' W 127°52'0 0.0
2015-Apr-27 19:28N 50°51' W 127°52'0 0.0
2015-Apr-27 18:28N 50°51' W 127°52'5 5.5
2015-Apr-27 17:32N 50°55' W 127°46'9 9.6
2015-Apr-27 16:33N 51°04' W 127°48'1210.2
2015-Apr-27 15:25N 51°16' W 127°52'  

Dump ship's entire track history